createdAt,value
2018-12-09T00:01:03.530Z,84.90
2018-12-09T00:03:38.476Z,86.20
2018-12-09T00:06:13.709Z,86.70
2018-12-09T00:08:50.932Z,87.80
2018-12-09T00:11:23.841Z,88.40
2018-12-09T00:13:54.333Z,89.70
2018-12-09T00:16:27.301Z,89.10
2018-12-09T00:18:59.868Z,90.00
2018-12-09T00:21:32.552Z,91.00
2018-12-09T00:24:05.093Z,91.90
2018-12-09T00:26:37.745Z,92.50
2018-12-09T00:29:10.454Z,92.70
2018-12-09T00:31:43.716Z,93.50
2018-12-09T00:34:16.253Z,93.00
2018-12-09T00:36:49.090Z,93.50
2018-12-09T00:39:22.036Z,93.30
2018-12-09T00:41:57.051Z,93.10
2018-12-09T00:44:29.468Z,92.90
2018-12-09T00:47:02.251Z,92.60
2018-12-09T00:49:34.284Z,92.50
2018-12-09T00:52:07.120Z,92.70
2018-12-09T00:54:37.720Z,92.60
2018-12-09T00:57:10.701Z,92.60
2018-12-09T00:59:43.638Z,92.50
2018-12-09T01:02:16.540Z,93.10
2018-12-09T01:04:49.043Z,93.00
2018-12-09T01:07:21.970Z,93.20
2018-12-09T01:09:54.783Z,93.30
2018-12-09T01:12:27.838Z,92.50
2018-12-09T01:15:00.659Z,92.00
2018-12-09T01:17:33.597Z,91.80
2018-12-09T01:20:07.839Z,91.20
2018-12-09T01:22:40.418Z,91.70
2018-12-09T01:25:12.742Z,91.70
2018-12-09T01:27:44.760Z,92.10
2018-12-09T01:30:17.435Z,92.50
2018-12-09T01:32:50.234Z,92.20
2018-12-09T01:35:22.760Z,92.30
2018-12-09T01:37:55.737Z,92.60
2018-12-09T01:40:32.835Z,92.70
2018-12-09T01:43:05.611Z,92.60
2018-12-09T01:45:38.024Z,92.80
2018-12-09T01:48:10.881Z,93.70
2018-12-09T01:50:43.761Z,93.70
2018-12-09T01:54:34.619Z,93.60
2018-12-09T01:57:06.823Z,94.10
2018-12-09T01:59:39.470Z,94.20
2018-12-09T02:02:12.428Z,94.50
2018-12-09T02:04:45.417Z,94.50
2018-12-09T02:07:18.128Z,94.50
2018-12-09T02:09:50.978Z,94.10
2018-12-09T02:12:23.494Z,94.20
2018-12-09T02:14:56.454Z,94.10
2018-12-09T02:17:29.084Z,94.70
2018-12-09T02:19:59.655Z,94.90
2018-12-09T02:22:31.510Z,94.80
2018-12-09T02:25:03.843Z,95.40
2018-12-09T02:27:36.373Z,95.50
2018-12-09T02:30:08.703Z,95.60
2018-12-09T02:32:40.901Z,95.50
2018-12-09T02:35:13.148Z,95.50
2018-12-09T02:37:45.567Z,95.50
2018-12-09T02:40:18.316Z,95.60
2018-12-09T02:42:51.113Z,96.30
2018-12-09T02:45:23.131Z,95.50
2018-12-09T02:47:55.860Z,96.20
2018-12-09T02:50:28.595Z,96.00
2018-12-09T02:53:02.353Z,95.00
2018-12-09T02:55:37.822Z,94.30
2018-12-09T02:58:09.937Z,94.60
2018-12-09T03:00:43.035Z,94.30
2018-12-09T03:03:15.314Z,94.50
2018-12-09T03:05:48.303Z,95.00
2018-12-09T03:08:20.838Z,94.30
2018-12-09T03:10:53.499Z,92.30
2018-12-09T03:13:26.361Z,91.00
2018-12-09T03:16:00.196Z,91.00
2018-12-09T03:18:32.881Z,91.90
2018-12-09T03:21:05.447Z,92.70
2018-12-09T03:23:37.633Z,93.70
2018-12-09T03:26:10.535Z,93.30
2018-12-09T03:28:41.368Z,93.80
2018-12-09T03:31:13.972Z,94.30
2018-12-09T03:33:46.673Z,95.80
2018-12-09T03:36:19.656Z,95.50
2018-12-09T03:38:52.359Z,95.10
2018-12-09T03:41:25.228Z,94.70
2018-12-09T03:43:57.135Z,95.40
2018-12-09T03:46:29.313Z,95.50
2018-12-09T03:49:01.900Z,95.60
2018-12-09T03:51:33.920Z,95.70
2018-12-09T03:54:06.503Z,96.10
2018-12-09T03:56:38.480Z,96.60
2018-12-09T03:59:11.403Z,97.00
2018-12-09T04:01:43.757Z,97.10
2018-12-09T04:04:16.361Z,97.10
2018-12-09T04:06:49.041Z,96.60
2018-12-09T04:09:21.721Z,95.60
2018-12-09T04:11:52.480Z,95.60
2018-12-09T04:14:25.100Z,95.50
2018-12-09T04:16:58.014Z,96.30
2018-12-09T04:19:30.708Z,97.20
2018-12-09T04:22:02.685Z,97.80
2018-12-09T04:24:35.326Z,97.70
2018-12-09T04:27:08.320Z,97.70
2018-12-09T04:29:41.093Z,97.30
2018-12-09T04:32:13.868Z,96.90
2018-12-09T04:34:46.726Z,97.30
2018-12-09T04:37:19.670Z,97.40
2018-12-09T04:39:52.533Z,97.20
2018-12-09T04:42:24.421Z,96.90
2018-12-09T04:44:57.028Z,96.30
2018-12-09T04:47:29.001Z,96.20
2018-12-09T04:50:01.800Z,96.20
2018-12-09T04:52:33.728Z,96.20
2018-12-09T04:58:01.953Z,96.30
2018-12-09T05:00:56.317Z,96.50
2018-12-09T05:03:29.191Z,96.50
2018-12-09T05:06:03.103Z,96.80
2018-12-09T05:08:35.140Z,96.90
2018-12-09T05:11:07.844Z,96.60
2018-12-09T05:13:40.623Z,96.90
2018-12-09T05:16:13.041Z,96.80
2018-12-09T05:18:45.171Z,96.40
2018-12-09T05:21:18.074Z,96.30
2018-12-09T05:23:50.349Z,96.50
2018-12-09T05:26:22.477Z,96.80
2018-12-09T05:28:55.579Z,97.10
2018-12-09T05:31:27.999Z,97.30
2018-12-09T05:34:00.797Z,97.60
2018-12-09T05:36:33.676Z,97.30
2018-12-09T05:39:06.791Z,97.40
2018-12-09T05:41:39.517Z,97.70
2018-12-09T05:44:12.111Z,97.60
2018-12-09T05:46:45.039Z,98.00
2018-12-09T05:49:17.858Z,97.90
2018-12-09T05:51:50.650Z,97.80
2018-12-09T05:54:23.156Z,97.80
2018-12-09T05:56:55.924Z,97.80
2018-12-09T05:59:27.951Z,97.90
2018-12-09T06:02:17.373Z,98.20
2018-12-09T06:04:49.353Z,97.90
2018-12-09T06:07:22.046Z,98.00
2018-12-09T06:09:54.941Z,98.10
2018-12-09T06:12:27.621Z,98.00
2018-12-09T06:14:59.644Z,97.60
2018-12-09T06:17:32.324Z,98.00
2018-12-09T06:20:05.674Z,98.20
2018-12-09T06:22:38.111Z,97.60
2018-12-09T06:25:10.139Z,97.50
2018-12-09T06:27:42.099Z,97.80
2018-12-09T06:30:14.124Z,97.10
2018-12-09T06:32:47.689Z,96.40
2018-12-09T06:35:19.543Z,96.30
2018-12-09T06:37:52.373Z,96.60
2018-12-09T06:40:25.398Z,97.20
2018-12-09T06:42:58.226Z,97.00
2018-12-09T06:45:31.041Z,97.10
2018-12-09T06:48:03.639Z,97.60
2018-12-09T06:50:36.321Z,97.60
2018-12-09T06:53:08.333Z,98.00
2018-12-09T06:55:40.954Z,98.30
2018-12-09T06:58:13.729Z,97.90
2018-12-09T07:00:45.993Z,96.00
2018-12-09T07:06:23.194Z,94.60
2018-12-09T07:09:00.411Z,93.50
2018-12-09T07:11:33.242Z,94.50
2018-12-09T07:17:23.677Z,91.00
2018-12-09T07:19:55.608Z,90.10
2018-12-09T07:22:28.291Z,87.40
2018-12-09T07:24:58.962Z,86.70
2018-12-09T07:27:31.174Z,84.10
2018-12-09T07:30:10.074Z,82.70
2018-12-09T07:32:47.050Z,81.10
2018-12-09T07:38:40.721Z,80.20
2018-12-09T07:41:19.511Z,82.00
2018-12-09T07:43:58.119Z,83.70
2018-12-09T07:46:36.776Z,86.00
2018-12-09T07:49:16.010Z,86.70
2018-12-09T07:51:55.117Z,85.80
2018-12-09T07:57:40.631Z,71.20
2018-12-09T08:00:17.913Z,71.90
2018-12-09T08:02:55.462Z,70.40
2018-12-09T08:05:34.374Z,70.50
2018-12-09T08:08:07.418Z,73.20
2018-12-09T08:10:46.402Z,71.30
2018-12-09T08:13:21.106Z,71.60
2018-12-09T08:15:53.112Z,70.70
2018-12-09T08:18:26.199Z,67.80
2018-12-09T08:20:58.909Z,69.10
2018-12-09T08:23:32.566Z,67.90
2018-12-09T08:26:05.135Z,65.00
2018-12-09T08:28:37.650Z,64.60
2018-12-09T08:34:20.894Z,62.80
2018-12-09T08:36:52.720Z,61.80
2018-12-09T08:39:24.801Z,62.90
2018-12-09T08:41:56.843Z,61.90
2018-12-09T08:44:29.589Z,62.20
2018-12-09T08:47:02.524Z,62.60
2018-12-09T08:49:36.137Z,63.30
2018-12-09T08:52:08.774Z,62.00
2018-12-09T08:54:43.836Z,60.60
2018-12-09T08:57:16.401Z,60.10
2018-12-09T08:59:49.034Z,59.30
2018-12-09T09:02:23.109Z,58.30
2018-12-09T09:22:57.804Z,51.00
2018-12-09T09:25:30.284Z,49.50
2018-12-09T09:37:11.279Z,48.40
2018-12-09T09:39:44.034Z,47.30
2018-12-09T09:48:31.081Z,48.70
2018-12-09T09:51:03.741Z,45.60
2018-12-09T09:53:36.593Z,45.40
2018-12-09T09:56:09.376Z,47.30
2018-12-09T09:58:42.640Z,45.60
2018-12-09T10:01:13.054Z,46.90
2018-12-09T10:03:45.056Z,46.50
2018-12-09T10:06:17.626Z,45.50
2018-12-09T10:08:50.585Z,43.30
2018-12-09T10:11:23.475Z,42.10
2018-12-09T10:13:56.263Z,39.80
2018-12-09T10:16:28.932Z,39.00
2018-12-09T10:19:01.776Z,39.70
2018-12-09T10:21:33.734Z,39.20
2018-12-09T10:24:06.391Z,40.20
2018-12-09T10:26:37.197Z,40.60
2018-12-09T10:29:11.161Z,37.50
2018-12-09T10:31:44.071Z,38.30
2018-12-09T10:34:16.587Z,38.50
2018-12-09T10:36:49.553Z,39.40
2018-12-09T10:39:22.082Z,38.00
2018-12-09T10:41:57.225Z,38.00
2018-12-09T10:44:31.711Z,39.20
2018-12-09T10:47:08.630Z,38.80
2018-12-09T10:49:41.351Z,38.20
2018-12-09T10:52:16.128Z,37.80
2018-12-09T10:54:50.745Z,38.20
2018-12-09T10:57:23.213Z,38.90
2018-12-09T11:00:00.364Z,38.60
2018-12-09T11:06:03.368Z,44.90
2018-12-09T11:08:40.793Z,44.10
2018-12-09T11:11:15.633Z,44.30
2018-12-09T11:13:58.059Z,46.00
2018-12-09T11:16:33.814Z,46.50
2018-12-09T11:22:19.582Z,49.60
2018-12-09T11:25:00.627Z,50.70
2018-12-09T11:27:39.280Z,50.50
2018-12-09T11:30:16.742Z,51.10
2018-12-09T11:32:53.762Z,51.90
2018-12-09T11:35:30.537Z,52.20
2018-12-09T11:38:07.624Z,53.20
2018-12-09T11:40:46.184Z,53.10
2018-12-09T11:43:25.568Z,52.40
2018-12-09T11:46:04.223Z,53.10
2018-12-09T11:48:39.200Z,53.50
2018-12-09T11:51:18.516Z,52.90
2018-12-09T11:53:56.840Z,52.60
2018-12-09T11:56:31.630Z,51.20
2018-12-09T11:59:12.025Z,50.30
2018-12-09T12:01:49.247Z,51.60
2018-12-09T12:04:27.628Z,51.30
2018-12-09T12:07:06.236Z,51.00
2018-12-09T12:09:43.077Z,51.40
2018-12-09T12:12:22.151Z,50.70
2018-12-09T12:14:59.478Z,51.40
2018-12-09T12:17:37.092Z,51.30
2018-12-09T12:20:14.815Z,51.10
2018-12-09T12:22:49.784Z,51.90
2018-12-09T12:25:28.469Z,53.30
2018-12-09T12:28:06.964Z,54.50
2018-12-09T12:30:43.879Z,55.50
2018-12-09T12:33:22.585Z,55.60
2018-12-09T12:36:00.552Z,54.60
2018-12-09T12:38:39.453Z,55.40
2018-12-09T12:41:18.352Z,55.50
2018-12-09T12:43:53.075Z,56.30
2018-12-09T12:46:31.896Z,56.80
2018-12-09T12:49:09.080Z,58.00
2018-12-09T12:51:47.878Z,58.30
2018-12-09T12:54:27.499Z,59.10
2018-12-09T12:57:04.411Z,55.80
2018-12-09T12:59:39.117Z,55.90
2018-12-09T13:02:14.082Z,55.50
2018-12-09T13:04:52.433Z,57.00
2018-12-09T13:07:31.454Z,59.70
2018-12-09T13:10:07.212Z,58.90
2018-12-09T13:12:45.523Z,58.10
2018-12-09T13:15:22.403Z,59.20
2018-12-09T13:17:59.315Z,62.50
2018-12-09T13:20:37.962Z,62.30
2018-12-09T13:23:15.006Z,58.80
2018-12-09T13:25:53.648Z,56.30
2018-12-09T13:28:32.310Z,50.70
2018-12-09T13:31:11.045Z,48.80
2018-12-09T13:33:52.945Z,48.20
2018-12-09T13:36:31.827Z,51.40
2018-12-09T13:51:54.197Z,56.30
2018-12-09T13:54:28.948Z,55.20
2018-12-09T13:57:06.617Z,55.30
2018-12-09T13:59:43.866Z,54.00
2018-12-09T14:02:19.787Z,53.40
2018-12-09T14:04:56.531Z,53.00
2018-12-09T14:07:32.344Z,53.70
2018-12-09T14:10:12.126Z,53.70
2018-12-09T14:12:49.061Z,54.50
2018-12-09T14:15:27.593Z,53.80
2018-12-09T14:21:13.103Z,53.30
2018-12-09T14:23:51.862Z,55.30
2018-12-09T14:26:29.890Z,56.00
2018-12-09T14:29:08.461Z,56.20
2018-12-09T14:31:47.796Z,56.00
2018-12-09T14:34:25.003Z,54.60
2018-12-09T14:48:21.381Z,56.80
2018-12-09T14:51:06.899Z,57.70
2018-12-09T14:53:43.815Z,58.70
2018-12-09T14:59:33.390Z,59.10
2018-12-09T15:02:10.466Z,58.00
2018-12-09T15:04:45.277Z,58.20
2018-12-09T15:07:26.838Z,58.70
2018-12-09T15:10:08.467Z,59.30
2018-12-09T15:12:40.852Z,60.50
2018-12-09T15:15:19.330Z,62.40
2018-12-09T15:17:56.370Z,63.80
2018-12-09T15:20:33.637Z,63.70
2018-12-09T15:23:10.800Z,63.60
2018-12-09T15:25:49.123Z,63.40
2018-12-09T15:28:25.943Z,64.80
2018-12-09T15:31:03.292Z,65.20
2018-12-09T15:33:40.849Z,65.50
2018-12-09T15:36:13.861Z,65.80
2018-12-09T15:38:46.440Z,65.40
2018-12-09T15:41:20.452Z,65.40
2018-12-09T15:43:53.121Z,65.10
2018-12-09T15:46:25.518Z,64.60
2018-12-09T15:48:58.381Z,64.00
2018-12-09T15:51:31.110Z,61.30
2018-12-09T15:54:03.589Z,63.10
2018-12-09T15:56:36.941Z,61.20
2018-12-09T15:59:12.312Z,62.40
2018-12-09T16:04:15.539Z,61.20
2018-12-09T16:06:48.175Z,60.50
2018-12-09T16:09:21.428Z,60.90
2018-12-09T16:16:54.031Z,59.70
2018-12-09T16:19:26.928Z,60.30
2018-12-09T16:21:59.720Z,61.00
2018-12-09T16:24:31.702Z,60.20
2018-12-09T16:27:04.746Z,60.10
2018-12-09T16:29:42.672Z,58.90
2018-12-09T16:32:15.092Z,58.60
2018-12-09T16:34:45.910Z,58.50
2018-12-09T16:37:18.833Z,59.60
2018-12-09T16:39:51.587Z,57.50
2018-12-09T16:42:24.677Z,56.90
2018-12-09T16:44:57.163Z,55.30
2018-12-09T16:47:29.537Z,54.80
2018-12-09T16:50:02.882Z,54.10
2018-12-09T16:52:35.099Z,54.70
2018-12-09T16:55:08.523Z,56.30
2018-12-09T16:57:40.755Z,56.00
2018-12-09T17:00:13.607Z,55.80
2018-12-09T17:02:46.260Z,55.70
2018-12-09T17:05:19.130Z,54.20
2018-12-09T17:07:51.767Z,54.30
2018-12-09T17:10:24.805Z,55.30
2018-12-09T17:12:57.590Z,56.10
2018-12-09T17:15:30.422Z,56.20
2018-12-09T17:18:05.615Z,55.80
2018-12-09T17:20:39.065Z,56.00
2018-12-09T17:23:12.525Z,56.30
2018-12-09T17:25:44.830Z,55.60
2018-12-09T17:28:17.730Z,55.50
2018-12-09T17:30:52.297Z,54.90
2018-12-09T17:33:31.680Z,55.00
2018-12-09T17:36:12.477Z,56.90
2018-12-09T17:38:50.013Z,57.80
2018-12-09T17:41:28.085Z,57.30
2018-12-09T17:44:05.157Z,58.10
2018-12-09T17:46:37.421Z,56.40
2018-12-09T17:49:10.331Z,56.20
2018-12-09T17:51:43.336Z,58.00
2018-12-09T17:54:16.303Z,57.30
2018-12-09T17:56:48.730Z,56.40
2018-12-09T17:59:22.655Z,56.50
2018-12-09T18:01:55.308Z,57.90
2018-12-09T18:04:28.153Z,60.00
2018-12-09T18:07:04.637Z,61.90
2018-12-09T18:09:35.771Z,62.10
2018-12-09T18:12:10.049Z,61.50
2018-12-09T18:14:42.558Z,61.60
2018-12-09T18:17:14.930Z,63.00
2018-12-09T18:19:49.280Z,63.40
2018-12-09T18:22:21.666Z,64.50
2018-12-09T18:24:53.597Z,66.00
2018-12-09T18:27:26.538Z,66.00
2018-12-09T18:29:59.292Z,66.50
2018-12-09T18:32:32.931Z,67.10
2018-12-09T18:35:06.879Z,67.80
2018-12-09T18:37:40.198Z,69.70
2018-12-09T18:40:12.777Z,70.00
2018-12-09T18:42:45.491Z,71.30
2018-12-09T18:45:18.371Z,71.70
2018-12-09T18:47:51.245Z,72.20
2018-12-09T18:50:23.278Z,71.80
2018-12-09T18:52:56.520Z,73.10
2018-12-09T18:55:29.264Z,73.00
2018-12-09T18:58:02.120Z,71.90
2018-12-09T19:00:34.812Z,71.50
2018-12-09T19:03:10.418Z,72.50
2018-12-09T19:05:42.733Z,72.30
2018-12-09T19:08:15.292Z,73.80
2018-12-09T19:10:45.942Z,73.60
2018-12-09T19:13:17.780Z,74.60
2018-12-09T19:15:50.788Z,74.50
2018-12-09T19:18:23.396Z,75.20
2018-12-09T19:20:56.286Z,75.00
2018-12-09T19:23:29.186Z,74.40
2018-12-09T19:26:01.276Z,74.20
2018-12-09T19:28:34.660Z,74.70
2018-12-09T19:31:06.729Z,73.60
2018-12-09T19:33:39.539Z,73.20
2018-12-09T19:36:12.845Z,72.40
2018-12-09T19:38:45.450Z,70.90
2018-12-09T19:41:18.343Z,70.90
2018-12-09T19:47:01.771Z,71.50
2018-12-09T19:49:34.295Z,72.70
2018-12-09T19:52:05.299Z,72.10
2018-12-09T19:54:38.749Z,74.40
2018-12-09T19:57:11.009Z,75.60
2018-12-09T19:59:43.573Z,77.90
2018-12-09T20:05:27.583Z,79.30
2018-12-09T20:07:59.754Z,78.60
2018-12-09T20:10:33.907Z,77.80
2018-12-09T20:13:07.066Z,76.80
2018-12-09T20:15:40.366Z,76.80
2018-12-09T20:18:13.401Z,77.50
2018-12-09T20:20:45.808Z,78.60
2018-12-09T20:29:26.738Z,78.80
2018-12-09T20:32:01.928Z,79.80
2018-12-09T20:34:35.333Z,79.50
2018-12-09T20:37:08.556Z,79.70
2018-12-09T20:39:41.237Z,80.10
2018-12-09T20:42:13.552Z,81.30
2018-12-09T20:44:46.123Z,82.30
2018-12-09T20:47:19.290Z,82.20
2018-12-09T20:49:52.633Z,82.60
2018-12-09T20:52:25.060Z,83.60
2018-12-09T20:55:00.578Z,84.50
2018-12-09T20:57:35.526Z,84.70
2018-12-09T21:00:09.163Z,85.20
2018-12-09T21:02:42.730Z,86.10
2018-12-09T21:05:15.822Z,84.90
2018-12-09T21:07:48.453Z,85.10
2018-12-09T21:16:39.094Z,86.80
2018-12-09T21:19:11.495Z,87.70
2018-12-09T21:21:44.877Z,87.80
2018-12-09T21:24:25.708Z,87.80
2018-12-09T21:26:56.364Z,88.50
2018-12-09T21:29:29.017Z,88.60
2018-12-09T21:35:19.205Z,88.60
2018-12-09T21:40:49.093Z,88.80
2018-12-09T21:43:22.044Z,88.90
2018-12-09T21:45:54.408Z,89.00
2018-12-09T21:48:26.456Z,88.00
2018-12-09T21:51:00.226Z,86.70
2018-12-09T21:53:32.970Z,87.60
2018-12-09T21:56:05.531Z,87.30
2018-12-09T21:58:38.256Z,87.40
2018-12-09T22:01:10.663Z,87.30
2018-12-09T22:03:43.907Z,87.80
2018-12-09T22:06:16.606Z,88.10
2018-12-09T22:08:49.021Z,87.30
2018-12-09T22:11:22.556Z,84.70
2018-12-09T22:13:56.602Z,85.20
2018-12-09T22:16:29.451Z,85.50
2018-12-09T22:19:02.386Z,85.30
2018-12-09T22:21:34.734Z,85.90
2018-12-09T22:24:10.468Z,85.80
2018-12-09T22:26:43.257Z,88.10
2018-12-09T22:29:15.962Z,87.90
2018-12-09T22:31:50.508Z,88.00
2018-12-09T22:34:24.985Z,88.50
2018-12-09T22:36:59.815Z,89.00
2018-12-09T22:39:33.290Z,90.00
2018-12-09T22:42:11.711Z,90.50
2018-12-09T22:44:46.562Z,90.80
2018-12-09T22:47:19.209Z,90.60
2018-12-09T22:57:27.654Z,91.80
2018-12-09T23:00:00.229Z,92.60
2018-12-09T23:02:42.739Z,94.00
2018-12-09T23:05:15.043Z,94.00
2018-12-09T23:07:51.864Z,95.00
2018-12-09T23:10:24.879Z,95.40
2018-12-09T23:12:58.132Z,93.30
2018-12-09T23:15:30.489Z,91.10
2018-12-09T23:18:04.279Z,90.10
2018-12-09T23:20:37.997Z,90.50
2018-12-09T23:23:11.214Z,92.10
2018-12-09T23:25:44.119Z,93.50
2018-12-09T23:28:18.702Z,93.80
2018-12-09T23:30:51.067Z,94.00
2018-12-09T23:33:24.006Z,94.70
2018-12-09T23:35:56.628Z,95.70
2018-12-09T23:38:29.351Z,96.10
2018-12-09T23:41:02.129Z,96.10
2018-12-09T23:43:34.569Z,96.70
2018-12-09T23:46:07.268Z,96.80
2018-12-09T23:48:41.093Z,97.60
2018-12-09T23:51:14.256Z,98.70
2018-12-09T23:53:46.533Z,98.10
2018-12-09T23:56:18.921Z,98.50
